Airfield :
LOGIN :

Register | Disclaimer

   EN    FR    IT 

 










Legend :    VFR   Marginal VFR   IFR   Intensive IFR   Very Intensive IFR
Visi :
Ceiling :
>= 8 km
>= 3000ft
5 to 8 km
1000 to 3000 ft
1500m to 5 km
500 to 1000 ft
800 to 1500m
200 to 500 ft
< 800m
< 200 ft
Symbols :   Thunderstorms  Fog  Heavy snow  Heavy precipitations  Wind > 20 kt
SIGMETs :     Misc.  Thunderstorms  Icing  Turbulence  Mountain Waves  Volcanic Ashes






- Airport Elevation : 83 ft
- IATA code : LHR


EGLL - London Heathrow

CURRENT METAR :
  • 192050Z AUTO 21009KT 170V240 9999 NCD 24/16 Q1013

EXPIRED METARs :
  • 192020Z AUTO 20009KT 180V240 9999 NCD 24/16 Q1013
  • 191950Z AUTO 20010KT 160V240 9999 NCD 25/15 Q1013 NOSIG
  • 191920Z AUTO 19011KT 170V230 9999 NCD 26/15 Q1013
  • 191850Z AUTO 20012KT 170V240 9999 NCD 27/15 Q1013 NOSIG
  • 191820Z AUTO 20011KT 160V240 9999 NCD 28/15 Q1013
  • 191750Z AUTO 20011G21KT 160V240 9999 NCD 29/16 Q1013 NOSIG
  • 191720Z AUTO 20011KT 170V240 9999 NCD 29/15 Q1013
  • 191650Z AUTO 20009G19KT 150V250 9999 NCD 30/15 Q1013 NOSIG
  • 191620Z AUTO 21009G21KT 160V250 9999 NCD 30/14 Q1013 NOSIG

TAF TAF EGLL
Valid from the 19 at 18:00 until the 21 at 00:00 UTC


191653Z 1918/2024 20008KT CAVOK
PROB30
TEMPO 2003/2007 BKN010
PROB30
TEMPO 2014/2018 6000 SHRA
PROB30
TEMPO 2018/2024 4000 +SHRA



MET'MAP, your aeronautical weather chart ! - Copyright ORBIFLY December 2007 - Disclaimer

ORBIFLY MET'MAP TEAM :

Programming & Development : Alexandra Zaïnal
Original concept : Baudouin d'Aumeries
Technical & hardware support : Manuel Goepfert
Assistance : Marc-Olivier Méhu




SOURCES & CREDITS :

   NOAA